createdAt,value
2022-08-31T00:01:44.229Z,24.50
2022-08-31T00:04:15.032Z,23.15
2022-08-31T00:06:45.513Z,24.83
2022-08-31T00:09:19.887Z,22.40
2022-08-31T00:11:49.754Z,22.90
2022-08-31T00:14:22.462Z,32.15
2022-08-31T00:16:52.735Z,22.30
2022-08-31T00:19:23.189Z,21.33
2022-08-31T00:21:53.619Z,20.52
2022-08-31T00:24:24.152Z,19.67
2022-08-31T00:26:54.537Z,19.35
2022-08-31T00:29:24.733Z,17.30
2022-08-31T00:31:55.250Z,15.77
2022-08-31T00:34:28.547Z,13.38
2022-08-31T00:37:01.396Z,16.85
2022-08-31T00:39:32.392Z,13.70
2022-08-31T00:42:03.506Z,12.27
2022-08-31T00:44:34.779Z,11.38
2022-08-31T00:47:05.178Z,10.15
2022-08-31T00:49:37.177Z,10.75
2022-08-31T00:52:27.234Z,11.70
2022-08-31T00:55:01.067Z,13.88
2022-08-31T00:57:34.137Z,10.00
2022-08-31T01:00:07.782Z,18.17
2022-08-31T01:02:38.289Z,9.40
2022-08-31T01:05:09.196Z,9.55
2022-08-31T01:07:39.909Z,9.35
2022-08-31T01:10:11.466Z,8.50
2022-08-31T01:12:42.101Z,19.13
2022-08-31T01:15:14.509Z,24.92
2022-08-31T01:17:46.189Z,10.75
2022-08-31T01:20:21.595Z,10.00
2022-08-31T01:23:11.634Z,11.00
2022-08-31T01:25:44.045Z,10.73
2022-08-31T01:28:15.055Z,9.68
2022-08-31T01:30:46.385Z,9.05
2022-08-31T01:33:16.905Z,8.45
2022-08-31T01:35:50.686Z,8.40
2022-08-31T01:38:21.204Z,8.57
2022-08-31T01:40:57.549Z,11.68
2022-08-31T01:43:28.232Z,11.93
2022-08-31T01:45:58.528Z,10.00
2022-08-31T01:48:29.423Z,7.85
2022-08-31T01:51:00.250Z,19.83
2022-08-31T01:53:31.104Z,8.80
2022-08-31T01:56:01.534Z,12.85
2022-08-31T01:58:32.129Z,8.45
2022-08-31T02:01:33.067Z,8.50
2022-08-31T02:04:06.620Z,8.02
2022-08-31T02:06:37.569Z,7.90
2022-08-31T02:09:09.352Z,7.75
2022-08-31T02:11:40.599Z,7.60
2022-08-31T02:14:11.774Z,8.35
2022-08-31T02:16:43.376Z,8.77
2022-08-31T02:19:13.948Z,7.13
2022-08-31T02:21:44.626Z,7.18
2022-08-31T02:24:15.274Z,8.55
2022-08-31T02:26:45.433Z,7.28
2022-08-31T02:29:15.491Z,6.80
2022-08-31T02:31:48.407Z,8.02
2022-08-31T02:34:22.127Z,7.65
2022-08-31T02:36:52.637Z,5.70
2022-08-31T02:39:23.157Z,14.05
2022-08-31T02:41:53.865Z,6.63
2022-08-31T02:44:24.235Z,6.05
2022-08-31T02:46:55.036Z,6.53
2022-08-31T02:49:45.094Z,5.28
2022-08-31T02:52:16.088Z,5.82
2022-08-31T02:54:46.257Z,6.70
2022-08-31T02:57:16.823Z,6.20
2022-08-31T02:59:47.418Z,6.05
2022-08-31T03:02:19.112Z,6.95
2022-08-31T03:04:49.460Z,7.05
2022-08-31T03:07:21.440Z,7.15
2022-08-31T03:09:52.075Z,6.85
2022-08-31T03:12:22.348Z,6.03
2022-08-31T03:14:52.771Z,5.70
2022-08-31T03:17:23.089Z,5.72
2022-08-31T03:19:53.590Z,5.47
2022-08-31T03:22:24.151Z,5.90
2022-08-31T03:24:54.676Z,7.65
2022-08-31T03:27:27.219Z,5.28
2022-08-31T03:29:57.732Z,6.40
2022-08-31T03:32:32.340Z,9.90
2022-08-31T03:35:04.075Z,7.40
2022-08-31T03:37:35.356Z,7.60
2022-08-31T03:40:06.788Z,6.18
2022-08-31T03:42:37.897Z,5.85
2022-08-31T03:45:10.749Z,6.10
2022-08-31T03:47:45.007Z,5.82
2022-08-31T03:50:18.113Z,4.70
2022-08-31T03:53:05.623Z,4.30
2022-08-31T03:55:36.723Z,5.95
2022-08-31T03:58:07.582Z,5.88
2022-08-31T04:00:38.795Z,5.78
2022-08-31T04:03:19.133Z,9.60
2022-08-31T04:06:13.182Z,20.27
2022-08-31T04:09:02.906Z,6.43
2022-08-31T04:11:52.967Z,5.85
2022-08-31T04:14:43.123Z,7.43
2022-08-31T04:17:33.225Z,6.63
2022-08-31T04:20:29.540Z,6.30
2022-08-31T04:23:00.943Z,9.55
2022-08-31T04:25:35.431Z,10.65
2022-08-31T04:28:05.824Z,6.80
2022-08-31T04:30:36.358Z,6.40
2022-08-31T04:33:06.571Z,7.82
2022-08-31T04:35:37.084Z,7.10
2022-08-31T04:38:07.719Z,6.95
2022-08-31T04:40:41.481Z,6.90
2022-08-31T04:43:13.028Z,10.30
2022-08-31T04:45:45.214Z,8.00
2022-08-31T04:48:18.073Z,12.20
2022-08-31T04:50:52.196Z,8.50
2022-08-31T04:53:23.112Z,7.30
2022-08-31T04:55:53.243Z,6.90
2022-08-31T04:58:25.253Z,7.85
2022-08-31T05:00:55.587Z,8.02
2022-08-31T05:03:42.220Z,7.30
2022-08-31T05:06:19.399Z,7.47
2022-08-31T05:08:50.653Z,7.40
2022-08-31T05:11:24.867Z,7.57
2022-08-31T05:13:56.171Z,7.30
2022-08-31T05:16:26.697Z,6.93
2022-08-31T05:18:57.573Z,6.50
2022-08-31T05:21:33.238Z,6.72
2022-08-31T05:24:05.311Z,6.70
2022-08-31T05:26:38.017Z,7.65
2022-08-31T05:29:12.563Z,7.20
2022-08-31T05:31:43.819Z,6.88
2022-08-31T05:34:16.552Z,7.15
2022-08-31T05:36:48.930Z,7.10
2022-08-31T05:39:19.685Z,6.85
2022-08-31T05:41:51.204Z,6.45
2022-08-31T05:44:23.662Z,6.07
2022-08-31T05:47:03.446Z,6.43
2022-08-31T05:49:36.191Z,5.95
2022-08-31T05:52:07.201Z,6.70
2022-08-31T05:54:38.873Z,6.05
2022-08-31T05:57:09.916Z,6.80
2022-08-31T05:59:41.835Z,6.45
2022-08-31T06:02:13.161Z,6.22
2022-08-31T06:04:43.461Z,6.20
2022-08-31T06:07:13.934Z,6.70
2022-08-31T06:09:49.047Z,6.60
2022-08-31T06:12:21.987Z,6.72
2022-08-31T06:14:53.452Z,6.05
2022-08-31T06:17:25.719Z,6.70
2022-08-31T06:19:57.479Z,5.63
2022-08-31T06:22:28.513Z,6.35
2022-08-31T06:25:00.354Z,7.20
2022-08-31T06:27:31.415Z,7.60
2022-08-31T06:30:04.944Z,6.85
2022-08-31T06:32:38.167Z,6.80
2022-08-31T06:35:10.606Z,8.90
2022-08-31T06:38:01.161Z,7.38
2022-08-31T06:40:47.376Z,15.48
2022-08-31T06:43:33.416Z,7.60
2022-08-31T06:46:14.784Z,8.13
2022-08-31T06:49:05.105Z,11.68
2022-08-31T06:51:40.909Z,7.80
2022-08-31T06:54:28.371Z,7.25
2022-08-31T06:57:19.255Z,7.65
2022-08-31T07:00:09.999Z,7.93
2022-08-31T07:03:00.354Z,7.82
2022-08-31T07:05:30.694Z,7.57
2022-08-31T07:08:02.604Z,7.50
2022-08-31T07:10:37.362Z,6.70
2022-08-31T07:13:08.100Z,6.15
2022-08-31T07:15:38.883Z,6.10
2022-08-31T07:18:10.585Z,6.93
2022-08-31T07:20:41.150Z,6.15
2022-08-31T07:23:15.414Z,7.10
2022-08-31T07:26:00.311Z,6.03
2022-08-31T07:28:31.223Z,5.70
2022-08-31T07:31:02.437Z,6.22
2022-08-31T07:33:39.780Z,6.25
2022-08-31T07:36:12.291Z,6.53
2022-08-31T07:39:21.571Z,6.63
2022-08-31T07:42:11.650Z,6.50
2022-08-31T07:44:43.098Z,6.40
2022-08-31T07:47:26.770Z,6.20
2022-08-31T07:49:59.913Z,6.70
2022-08-31T07:52:53.202Z,5.60
2022-08-31T07:55:47.256Z,6.22
2022-08-31T07:58:37.061Z,5.88
2022-08-31T08:01:07.693Z,5.40
2022-08-31T08:03:42.487Z,5.90
2022-08-31T08:06:32.820Z,5.47
2022-08-31T08:09:22.784Z,5.85
2022-08-31T08:12:05.732Z,5.30
2022-08-31T08:15:00.476Z,5.63
2022-08-31T08:17:50.725Z,6.68
2022-08-31T08:20:34.298Z,5.32
2022-08-31T08:23:15.246Z,5.55
2022-08-31T08:26:21.274Z,6.07
2022-08-31T08:29:11.111Z,5.43
2022-08-31T08:31:45.557Z,5.18
2022-08-31T08:34:16.641Z,4.95
2022-08-31T08:36:47.924Z,6.40
2022-08-31T08:39:19.026Z,6.20
2022-08-31T08:42:10.343Z,5.90
2022-08-31T08:44:40.918Z,5.55
2022-08-31T08:47:17.442Z,6.53
2022-08-31T08:49:56.373Z,6.13
2022-08-31T08:52:30.967Z,6.47
2022-08-31T08:55:09.981Z,5.80
2022-08-31T08:57:42.779Z,6.20
2022-08-31T09:00:16.175Z,6.50
2022-08-31T09:02:59.849Z,6.70
2022-08-31T09:06:09.455Z,7.55
2022-08-31T09:09:10.190Z,6.82
2022-08-31T09:11:51.712Z,7.22
2022-08-31T09:14:31.057Z,8.15
2022-08-31T09:17:21.185Z,11.57
2022-08-31T09:20:01.704Z,6.75
2022-08-31T09:22:35.600Z,6.30
2022-08-31T09:25:07.092Z,7.20
2022-08-31T09:28:01.509Z,7.60
2022-08-31T09:30:54.409Z,7.40
2022-08-31T09:33:26.193Z,7.30
2022-08-31T09:35:58.370Z,7.90
2022-08-31T09:38:30.867Z,7.97
2022-08-31T09:41:01.671Z,7.80
2022-08-31T09:43:41.279Z,7.90
2022-08-31T09:46:13.438Z,8.00
2022-08-31T09:48:53.517Z,8.45
2022-08-31T09:51:31.501Z,7.70
2022-08-31T09:54:25.895Z,8.98
2022-08-31T09:56:57.648Z,8.95
2022-08-31T09:59:43.466Z,9.73
2022-08-31T10:02:15.762Z,8.40
2022-08-31T10:04:52.508Z,9.32
2022-08-31T10:07:44.473Z,8.18
2022-08-31T10:10:30.462Z,15.15
2022-08-31T10:13:07.676Z,10.48
2022-08-31T10:15:58.085Z,10.55
2022-08-31T10:18:52.197Z,15.35
2022-08-31T10:21:28.193Z,13.40
2022-08-31T10:24:22.231Z,14.55
2022-08-31T10:26:55.703Z,10.80
2022-08-31T10:29:47.602Z,11.05
2022-08-31T10:32:38.320Z,12.93
2022-08-31T10:35:27.984Z,14.32
2022-08-31T10:38:09.757Z,17.75
2022-08-31T10:40:47.318Z,20.63
2022-08-31T10:43:20.126Z,37.30
2022-08-31T10:45:53.090Z,22.48
2022-08-31T10:48:26.082Z,20.17
2022-08-31T10:51:07.231Z,16.55
2022-08-31T10:53:53.775Z,13.93
2022-08-31T10:56:33.875Z,16.55
2022-08-31T10:59:09.951Z,19.55
2022-08-31T11:02:00.040Z,15.32
2022-08-31T11:04:41.981Z,14.57
2022-08-31T11:07:31.740Z,17.90
2022-08-31T11:10:21.737Z,18.45
2022-08-31T11:13:02.359Z,20.95
2022-08-31T11:15:49.793Z,23.27
2022-08-31T11:18:41.704Z,18.15
2022-08-31T11:21:36.838Z,13.40
2022-08-31T11:24:26.610Z,14.15
2022-08-31T11:27:18.770Z,22.40
2022-08-31T11:29:58.530Z,19.80
2022-08-31T11:32:48.485Z,18.45
2022-08-31T11:35:42.280Z,13.73
2022-08-31T11:38:37.470Z,10.90
2022-08-31T11:41:12.384Z,11.50
2022-08-31T11:43:47.302Z,14.00
2022-08-31T11:46:37.789Z,13.07
2022-08-31T11:49:12.478Z,18.60
2022-08-31T11:51:49.859Z,14.65
2022-08-31T11:54:47.626Z,13.70
2022-08-31T11:57:22.562Z,14.25
2022-08-31T11:59:54.040Z,14.65
2022-08-31T12:02:46.745Z,13.57
2022-08-31T12:05:36.764Z,12.30
2022-08-31T12:08:13.142Z,12.82
2022-08-31T12:11:02.840Z,11.32
2022-08-31T12:13:53.431Z,12.18
2022-08-31T12:16:29.615Z,11.40
2022-08-31T12:19:15.144Z,10.88
2022-08-31T12:22:24.772Z,16.25
2022-08-31T12:25:10.111Z,35.95
2022-08-31T12:27:53.004Z,14.63
2022-08-31T12:30:25.204Z,13.80
2022-08-31T12:33:14.634Z,17.95
2022-08-31T12:35:47.731Z,14.82
2022-08-31T12:38:27.897Z,12.57
2022-08-31T12:40:59.453Z,16.00
2022-08-31T12:43:50.431Z,14.25
2022-08-31T12:46:40.207Z,16.50
2022-08-31T12:49:30.794Z,15.43
2022-08-31T12:52:20.578Z,17.75
2022-08-31T12:55:10.325Z,13.98
2022-08-31T12:58:00.456Z,19.15
2022-08-31T13:00:40.747Z,19.70
2022-08-31T13:03:30.905Z,19.77
2022-08-31T13:06:22.153Z,14.63
2022-08-31T13:08:53.577Z,15.15
2022-08-31T13:11:35.333Z,16.67
2022-08-31T13:14:19.675Z,16.67
2022-08-31T13:16:52.421Z,15.10
2022-08-31T13:19:27.948Z,15.02
2022-08-31T13:22:06.706Z,14.18
2022-08-31T13:24:53.841Z,14.15
2022-08-31T13:27:27.127Z,13.68
2022-08-31T13:30:00.744Z,13.68
2022-08-31T13:32:36.377Z,14.25
2022-08-31T13:35:16.675Z,15.45
2022-08-31T13:38:07.570Z,16.60
2022-08-31T13:40:39.720Z,17.25
2022-08-31T13:43:11.994Z,18.83
2022-08-31T13:45:44.555Z,37.30
2022-08-31T13:48:17.455Z,16.00
2022-08-31T13:50:53.482Z,16.25
2022-08-31T13:53:43.632Z,8.40
2022-08-31T13:56:53.300Z,8.95
2022-08-31T13:59:33.009Z,12.15
2022-08-31T14:02:36.266Z,15.00
2022-08-31T14:05:10.103Z,12.73
2022-08-31T14:07:55.658Z,14.65
2022-08-31T14:10:27.867Z,15.07
2022-08-31T14:13:19.622Z,16.85
2022-08-31T14:16:04.419Z,16.95
2022-08-31T14:18:48.507Z,21.80
2022-08-31T14:21:23.443Z,18.63
2022-08-31T14:24:02.760Z,14.30
2022-08-31T14:26:34.324Z,16.13
2022-08-31T14:29:11.192Z,16.20
2022-08-31T14:31:53.619Z,17.73
2022-08-31T14:34:29.095Z,18.15
2022-08-31T14:37:03.769Z,18.35
2022-08-31T14:39:55.252Z,18.25
2022-08-31T14:42:33.133Z,17.23
2022-08-31T14:45:06.631Z,17.15
2022-08-31T14:47:38.788Z,18.15
2022-08-31T14:50:09.738Z,18.48
2022-08-31T14:52:47.856Z,21.88
2022-08-31T14:55:18.334Z,16.65
2022-08-31T14:57:57.054Z,16.77
2022-08-31T15:00:33.165Z,16.88
2022-08-31T15:03:04.522Z,20.40
2022-08-31T15:05:40.509Z,12.90
2022-08-31T15:08:11.181Z,14.30
2022-08-31T15:10:42.804Z,12.27
2022-08-31T15:13:13.488Z,11.70
2022-08-31T15:15:47.447Z,11.98
2022-08-31T15:18:18.262Z,13.20
2022-08-31T15:20:49.812Z,13.00
2022-08-31T15:23:21.465Z,12.20
2022-08-31T15:25:55.347Z,13.15
2022-08-31T15:28:25.518Z,23.95
2022-08-31T15:30:55.808Z,19.75
2022-08-31T15:33:26.953Z,14.00
2022-08-31T15:36:08.956Z,21.60
2022-08-31T15:38:40.274Z,15.25
2022-08-31T15:41:10.854Z,21.92
2022-08-31T15:43:45.839Z,18.50
2022-08-31T15:46:16.757Z,14.27
2022-08-31T15:48:47.732Z,14.60
2022-08-31T15:51:22.152Z,14.93
2022-08-31T15:54:18.342Z,15.13
2022-08-31T15:56:45.284Z,15.65
2022-08-31T15:59:16.314Z,14.48
2022-08-31T16:01:46.834Z,14.93
2022-08-31T16:04:25.174Z,22.02
2022-08-31T16:06:56.972Z,32.55
2022-08-31T16:09:27.527Z,14.07
2022-08-31T16:11:57.714Z,15.35
2022-08-31T16:14:27.830Z,15.35
2022-08-31T16:17:01.274Z,15.73
2022-08-31T16:19:35.818Z,17.08
2022-08-31T16:22:07.548Z,17.42
2022-08-31T16:24:38.691Z,17.45
2022-08-31T16:27:11.045Z,16.33
2022-08-31T16:29:41.989Z,16.05
2022-08-31T16:32:12.803Z,27.58
2022-08-31T16:34:44.257Z,29.35
2022-08-31T16:37:14.457Z,30.15
2022-08-31T16:39:48.543Z,17.45
2022-08-31T16:42:19.184Z,18.23
2022-08-31T16:44:49.782Z,22.45
2022-08-31T16:47:21.411Z,18.58
2022-08-31T16:49:51.570Z,19.17
2022-08-31T16:52:25.737Z,18.08
2022-08-31T16:54:57.979Z,19.38
2022-08-31T16:57:30.576Z,17.42
2022-08-31T17:00:01.100Z,17.80
2022-08-31T17:02:31.566Z,18.85
2022-08-31T17:05:06.035Z,19.63
2022-08-31T17:07:36.235Z,20.63
2022-08-31T17:10:08.303Z,19.80
2022-08-31T17:12:39.711Z,21.02
2022-08-31T17:15:15.372Z,20.23
2022-08-31T17:17:49.353Z,19.52
2022-08-31T17:20:19.719Z,19.08
2022-08-31T17:22:51.602Z,17.35
2022-08-31T17:25:23.534Z,17.55
2022-08-31T17:28:00.439Z,18.63
2022-08-31T17:30:33.782Z,16.83
2022-08-31T17:33:04.265Z,16.75
2022-08-31T17:35:34.457Z,17.77
2022-08-31T17:38:08.161Z,17.60
2022-08-31T17:40:38.870Z,18.30
2022-08-31T17:43:09.647Z,17.40
2022-08-31T17:45:39.818Z,17.67
2022-08-31T17:48:10.027Z,15.57
2022-08-31T17:50:44.390Z,15.25
2022-08-31T17:53:14.566Z,17.98
2022-08-31T17:55:44.893Z,17.98
2022-08-31T17:58:15.336Z,17.08
2022-08-31T18:00:45.726Z,20.02
2022-08-31T18:03:16.175Z,18.70
2022-08-31T18:05:47.179Z,18.35
2022-08-31T18:08:17.655Z,17.02
2022-08-31T18:10:53.706Z,17.65
2022-08-31T18:13:24.581Z,17.35
2022-08-31T18:15:56.462Z,16.92
2022-08-31T18:18:27.083Z,16.90
2022-08-31T18:20:57.426Z,17.05
2022-08-31T18:23:27.689Z,25.95
2022-08-31T18:25:57.842Z,27.00
2022-08-31T18:28:27.714Z,16.75
2022-08-31T18:30:58.124Z,17.23
2022-08-31T18:33:29.189Z,18.30
2022-08-31T18:36:01.118Z,17.23
2022-08-31T18:38:31.795Z,16.60
2022-08-31T18:41:25.528Z,16.55
2022-08-31T18:44:15.235Z,16.75
2022-08-31T18:46:46.598Z,17.52
2022-08-31T18:49:17.046Z,17.00
2022-08-31T18:51:48.169Z,17.98
2022-08-31T18:54:19.296Z,16.70
2022-08-31T18:56:50.556Z,17.27
2022-08-31T18:59:22.340Z,18.15
2022-08-31T19:01:53.027Z,17.08
2022-08-31T19:04:23.475Z,17.95
2022-08-31T19:06:53.643Z,17.98
2022-08-31T19:09:25.619Z,17.52
2022-08-31T19:12:03.702Z,18.10
2022-08-31T19:14:34.869Z,18.23
2022-08-31T19:17:09.823Z,17.85
2022-08-31T19:19:40.078Z,17.60
2022-08-31T19:22:11.087Z,16.42
2022-08-31T19:24:41.707Z,16.17
2022-08-31T19:27:12.534Z,16.85
2022-08-31T19:29:43.691Z,18.23
2022-08-31T19:32:15.387Z,16.13
2022-08-31T19:34:49.482Z,16.85
2022-08-31T19:37:20.173Z,16.42
2022-08-31T19:39:51.240Z,16.50
2022-08-31T19:42:21.521Z,16.60
2022-08-31T19:45:21.878Z,17.73
2022-08-31T19:47:41.763Z,16.85
2022-08-31T19:50:13.971Z,17.63
2022-08-31T19:52:45.140Z,17.95
2022-08-31T19:55:15.341Z,17.33
2022-08-31T19:57:45.431Z,18.55
2022-08-31T20:00:17.505Z,18.63
2022-08-31T20:02:48.135Z,18.02
2022-08-31T20:05:18.527Z,18.50
2022-08-31T20:07:48.630Z,19.73
2022-08-31T20:10:19.468Z,19.00
2022-08-31T20:12:49.981Z,17.35
2022-08-31T20:15:25.698Z,17.25
2022-08-31T20:17:58.811Z,18.60
2022-08-31T20:20:37.625Z,19.10
2022-08-31T20:23:08.309Z,19.05
2022-08-31T20:25:40.230Z,18.42
2022-08-31T20:28:11.486Z,19.35
2022-08-31T20:30:43.308Z,20.02
2022-08-31T20:33:14.222Z,19.90
2022-08-31T20:35:48.636Z,19.73
2022-08-31T20:38:19.988Z,19.70
2022-08-31T20:40:56.511Z,19.35
2022-08-31T20:43:27.304Z,19.75
2022-08-31T20:45:58.759Z,19.13
2022-08-31T20:48:48.806Z,18.70
2022-08-31T20:51:19.661Z,20.52
2022-08-31T20:53:50.836Z,19.63
2022-08-31T20:56:25.756Z,20.05
2022-08-31T20:58:56.173Z,19.35
2022-08-31T21:01:27.623Z,20.95
2022-08-31T21:03:58.838Z,18.98
2022-08-31T21:06:29.006Z,21.13
2022-08-31T21:08:59.627Z,22.65
2022-08-31T21:11:30.783Z,21.60
2022-08-31T21:14:01.622Z,22.38
2022-08-31T21:16:34.476Z,23.38
2022-08-31T21:19:08.971Z,22.92
2022-08-31T21:21:39.508Z,23.90
2022-08-31T21:24:11.410Z,24.08
2022-08-31T21:26:42.641Z,23.60
2022-08-31T21:29:14.583Z,20.58
2022-08-31T21:31:55.913Z,21.40
2022-08-31T21:34:30.028Z,21.88
2022-08-31T21:37:00.504Z,21.40
2022-08-31T21:39:30.998Z,20.75
2022-08-31T21:42:01.807Z,22.30
2022-08-31T21:44:32.410Z,24.02
2022-08-31T21:47:04.745Z,25.45
2022-08-31T21:49:37.180Z,21.27
2022-08-31T21:52:07.683Z,22.25
2022-08-31T21:54:38.684Z,21.73
2022-08-31T21:57:09.642Z,24.42
2022-08-31T21:59:40.589Z,25.23
2022-08-31T22:02:12.690Z,23.98
2022-08-31T22:04:44.839Z,23.10
2022-08-31T22:07:15.777Z,22.60
2022-08-31T22:09:48.228Z,23.02
2022-08-31T22:12:19.860Z,23.65
2022-08-31T22:14:51.730Z,25.08
2022-08-31T22:17:32.965Z,23.00
2022-08-31T22:20:15.947Z,22.92
2022-08-31T22:22:46.950Z,22.08
2022-08-31T22:25:17.266Z,22.40
2022-08-31T22:27:49.073Z,23.40
2022-08-31T22:30:21.519Z,24.90
2022-08-31T22:32:51.866Z,24.33
2022-08-31T22:35:22.582Z,25.15
2022-08-31T22:37:53.105Z,24.98
2022-08-31T22:40:23.707Z,25.02
2022-08-31T22:42:55.952Z,24.08
2022-08-31T22:45:26.418Z,25.95
2022-08-31T22:47:56.816Z,25.05
2022-08-31T22:50:27.376Z,23.20
2022-08-31T22:52:57.397Z,25.00
2022-08-31T22:55:27.511Z,23.95
2022-08-31T22:57:57.581Z,22.70
2022-08-31T23:00:27.675Z,23.33
2022-08-31T23:02:58.837Z,25.27
2022-08-31T23:05:29.015Z,25.50
2022-08-31T23:07:58.814Z,28.13
2022-08-31T23:10:29.905Z,27.17
2022-08-31T23:13:00.350Z,26.42
2022-08-31T23:15:32.544Z,27.92
2022-08-31T23:18:03.570Z,28.20
2022-08-31T23:20:33.607Z,28.70
2022-08-31T23:23:05.477Z,28.38
2022-08-31T23:25:36.834Z,26.58
2022-08-31T23:28:07.309Z,27.35
2022-08-31T23:30:39.530Z,25.48
2022-08-31T23:33:09.677Z,25.13
2022-08-31T23:35:42.114Z,25.85
2022-08-31T23:38:12.635Z,44.33
2022-08-31T23:40:43.932Z,39.83
2022-08-31T23:43:15.641Z,26.33
2022-08-31T23:45:49.755Z,26.15
2022-08-31T23:48:20.743Z,24.20
2022-08-31T23:50:52.555Z,24.65
2022-08-31T23:53:23.718Z,26.52
2022-08-31T23:55:54.310Z,25.70
2022-08-31T23:58:27.198Z,24.98
